90°F Temp
63°F Dewpoint
41% Humidity
Temperature
12 MPH
19 KM/H
10 KTS
120°
East South
East

Wind Speed
Clear
Conditions
Pressure 1016.92 (hPa) - 30.03 (in)
Visibility 10.0 (mi) - 16.1 (km)

Current Conditions
KCBK
Location 5(mi)
Metar :KCBK 022055Z AUTO 12010KT 10SM CLR 32/17 A3003 RMK AO2 T03170174
Sat 2nd July 14:55 pm

Airport
  Metar Aviation API Data Provided by https://www.checkwx.com/ PHP scripts by weather34.com ©2022